sensor_id;sensor_type;location;lat;lon;timestamp;temperature;humidity
40660;DHT22;26753;45.544;9.232;2023-03-31T00:01:39;14.50;99.90
40660;DHT22;26753;45.544;9.232;2023-03-31T00:04:08;14.20;99.90
40660;DHT22;26753;45.544;9.232;2023-03-31T00:06:35;13.40;99.90
40660;DHT22;26753;45.544;9.232;2023-03-31T00:09:14;13.90;99.90
40660;DHT22;26753;45.544;9.232;2023-03-31T00:11:52;14.10;99.90
40660;DHT22;26753;45.544;9.232;2023-03-31T00:14:18;14.20;99.90
40660;DHT22;26753;45.544;9.232;2023-03-31T00:16:44;14.20;99.90
40660;DHT22;26753;45.544;9.232;2023-03-31T00:19:11;15.10;99.90
40660;DHT22;26753;45.544;9.232;2023-03-31T00:21:45;13.90;99.90
40660;DHT22;26753;45.544;9.232;2023-03-31T00:24:12;14.20;99.90
40660;DHT22;26753;45.544;9.232;2023-03-31T00:26:38;14.20;99.90
40660;DHT22;26753;45.544;9.232;2023-03-31T00:29:04;14.40;99.90
40660;DHT22;26753;45.544;9.232;2023-03-31T00:31:30;14.10;99.90
40660;DHT22;26753;45.544;9.232;2023-03-31T00:33:56;14.40;99.90
40660;DHT22;26753;45.544;9.232;2023-03-31T00:36:22;14.20;99.90
40660;DHT22;26753;45.544;9.232;2023-03-31T00:38:55;14.20;99.90
40660;DHT22;26753;45.544;9.232;2023-03-31T00:41:23;14.10;99.90
40660;DHT22;26753;45.544;9.232;2023-03-31T00:44:00;14.30;99.90
40660;DHT22;26753;45.544;9.232;2023-03-31T00:46:49;14.10;99.90
40660;DHT22;26753;45.544;9.232;2023-03-31T00:49:13;14.60;99.90
40660;DHT22;26753;45.544;9.232;2023-03-31T00:51:40;14.90;99.90
40660;DHT22;26753;45.544;9.232;2023-03-31T00:54:07;14.90;99.90
40660;DHT22;26753;45.544;9.232;2023-03-31T00:56:35;15.40;99.90
40660;DHT22;26753;45.544;9.232;2023-03-31T00:59:19;14.10;99.90
40660;DHT22;26753;45.544;9.232;2023-03-31T01:01:49;13.80;99.90
40660;DHT22;26753;45.544;9.232;2023-03-31T01:04:14;14.10;99.90
40660;DHT22;26753;45.544;9.232;2023-03-31T01:06:49;14.40;99.90
40660;DHT22;26753;45.544;9.232;2023-03-31T01:09:22;14.10;99.90
40660;DHT22;26753;45.544;9.232;2023-03-31T01:11:49;14.10;99.90
40660;DHT22;26753;45.544;9.232;2023-03-31T01:14:15;14.20;99.90
40660;DHT22;26753;45.544;9.232;2023-03-31T01:16:41;14.40;99.90
40660;DHT22;26753;45.544;9.232;2023-03-31T01:27:16;13.90;99.90
40660;DHT22;26753;45.544;9.232;2023-03-31T01:47:43;12.80;99.90
40660;DHT22;26753;45.544;9.232;2023-03-31T01:50:15;13.00;99.90
40660;DHT22;26753;45.544;9.232;2023-03-31T01:52:48;14.80;99.90
40660;DHT22;26753;45.544;9.232;2023-03-31T01:55:18;14.40;99.90
40660;DHT22;26753;45.544;9.232;2023-03-31T01:57:46;13.50;99.90
40660;DHT22;26753;45.544;9.232;2023-03-31T02:00:15;14.50;99.90
40660;DHT22;26753;45.544;9.232;2023-03-31T02:02:46;14.00;99.90
40660;DHT22;26753;45.544;9.232;2023-03-31T02:05:17;14.30;99.90
40660;DHT22;26753;45.544;9.232;2023-03-31T02:07:49;13.80;99.90
40660;DHT22;26753;45.544;9.232;2023-03-31T02:10:20;13.10;99.90
40660;DHT22;26753;45.544;9.232;2023-03-31T02:12:47;14.90;99.90
40660;DHT22;26753;45.544;9.232;2023-03-31T02:18:22;14.10;99.90
40660;DHT22;26753;45.544;9.232;2023-03-31T02:20:55;15.30;99.90
40660;DHT22;26753;45.544;9.232;2023-03-31T02:23:22;13.90;99.90
40660;DHT22;26753;45.544;9.232;2023-03-31T02:25:52;13.50;99.90
40660;DHT22;26753;45.544;9.232;2023-03-31T02:28:27;14.00;99.90
40660;DHT22;26753;45.544;9.232;2023-03-31T02:34:03;14.00;99.90
40660;DHT22;26753;45.544;9.232;2023-03-31T02:36:32;14.40;99.90
40660;DHT22;26753;45.544;9.232;2023-03-31T02:39:05;14.00;99.90
40660;DHT22;26753;45.544;9.232;2023-03-31T02:41:38;14.70;99.90
40660;DHT22;26753;45.544;9.232;2023-03-31T02:44:26;14.00;99.90
40660;DHT22;26753;45.544;9.232;2023-03-31T02:47:11;13.60;99.90
40660;DHT22;26753;45.544;9.232;2023-03-31T02:49:52;14.00;99.90
40660;DHT22;26753;45.544;9.232;2023-03-31T02:55:10;14.00;99.90
40660;DHT22;26753;45.544;9.232;2023-03-31T03:00:36;14.10;99.90
40660;DHT22;26753;45.544;9.232;2023-03-31T03:10:51;13.80;99.90
40660;DHT22;26753;45.544;9.232;2023-03-31T03:18:38;14.00;99.90
40660;DHT22;26753;45.544;9.232;2023-03-31T03:21:03;14.70;99.90
40660;DHT22;26753;45.544;9.232;2023-03-31T03:23:29;14.00;99.90
40660;DHT22;26753;45.544;9.232;2023-03-31T03:25:58;13.90;99.90
40660;DHT22;26753;45.544;9.232;2023-03-31T03:28:24;14.80;99.90
40660;DHT22;26753;45.544;9.232;2023-03-31T03:30:50;14.10;99.90
40660;DHT22;26753;45.544;9.232;2023-03-31T03:33:18;14.00;99.90
40660;DHT22;26753;45.544;9.232;2023-03-31T03:35:44;14.10;99.90
40660;DHT22;26753;45.544;9.232;2023-03-31T03:38:09;14.10;99.90
40660;DHT22;26753;45.544;9.232;2023-03-31T03:40:35;13.10;99.90
40660;DHT22;26753;45.544;9.232;2023-03-31T03:43:01;14.00;99.90
40660;DHT22;26753;45.544;9.232;2023-03-31T03:45:29;14.00;99.90
40660;DHT22;26753;45.544;9.232;2023-03-31T03:47:55;15.30;99.90
40660;DHT22;26753;45.544;9.232;2023-03-31T03:50:21;13.60;99.90
40660;DHT22;26753;45.544;9.232;2023-03-31T03:52:47;14.70;99.90
40660;DHT22;26753;45.544;9.232;2023-03-31T03:55:12;14.00;99.90
40660;DHT22;26753;45.544;9.232;2023-03-31T03:57:38;13.90;99.90
40660;DHT22;26753;45.544;9.232;2023-03-31T04:00:04;13.90;99.90
40660;DHT22;26753;45.544;9.232;2023-03-31T04:02:34;13.90;99.90
40660;DHT22;26753;45.544;9.232;2023-03-31T04:05:00;15.70;99.90
40660;DHT22;26753;45.544;9.232;2023-03-31T04:07:25;13.70;99.90
40660;DHT22;26753;45.544;9.232;2023-03-31T04:09:51;13.90;99.90
40660;DHT22;26753;45.544;9.232;2023-03-31T04:12:17;13.90;99.90
40660;DHT22;26753;45.544;9.232;2023-03-31T04:14:42;15.20;99.90
40660;DHT22;26753;45.544;9.232;2023-03-31T04:17:08;14.60;99.90
40660;DHT22;26753;45.544;9.232;2023-03-31T04:19:40;14.00;99.90
40660;DHT22;26753;45.544;9.232;2023-03-31T04:22:07;15.00;99.90
40660;DHT22;26753;45.544;9.232;2023-03-31T04:24:36;13.80;99.90
40660;DHT22;26753;45.544;9.232;2023-03-31T04:27:05;13.40;99.90
40660;DHT22;26753;45.544;9.232;2023-03-31T04:29:31;14.30;99.90
40660;DHT22;26753;45.544;9.232;2023-03-31T04:31:58;14.00;99.90
40660;DHT22;26753;45.544;9.232;2023-03-31T04:34:25;14.20;99.90
40660;DHT22;26753;45.544;9.232;2023-03-31T04:37:08;13.80;99.90
40660;DHT22;26753;45.544;9.232;2023-03-31T04:39:35;14.00;99.90
40660;DHT22;26753;45.544;9.232;2023-03-31T04:42:00;14.20;99.90
40660;DHT22;26753;45.544;9.232;2023-03-31T04:44:26;14.00;99.90
40660;DHT22;26753;45.544;9.232;2023-03-31T04:46:52;14.10;99.90
40660;DHT22;26753;45.544;9.232;2023-03-31T04:49:18;14.80;99.90
40660;DHT22;26753;45.544;9.232;2023-03-31T04:51:44;14.10;99.90
40660;DHT22;26753;45.544;9.232;2023-03-31T04:54:10;14.00;99.90
40660;DHT22;26753;45.544;9.232;2023-03-31T04:56:44;14.10;99.90
40660;DHT22;26753;45.544;9.232;2023-03-31T04:59:10;14.10;99.90
40660;DHT22;26753;45.544;9.232;2023-03-31T05:01:39;14.10;99.90
40660;DHT22;26753;45.544;9.232;2023-03-31T05:04:12;14.10;99.90
40660;DHT22;26753;45.544;9.232;2023-03-31T05:06:38;14.20;99.90
40660;DHT22;26753;45.544;9.232;2023-03-31T05:09:03;14.00;99.90
40660;DHT22;26753;45.544;9.232;2023-03-31T05:11:29;14.20;99.90
40660;DHT22;26753;45.544;9.232;2023-03-31T05:13:55;14.20;99.90
40660;DHT22;26753;45.544;9.232;2023-03-31T05:16:20;14.20;99.90
40660;DHT22;26753;45.544;9.232;2023-03-31T05:18:46;13.80;99.90
40660;DHT22;26753;45.544;9.232;2023-03-31T05:21:13;14.20;99.90
40660;DHT22;26753;45.544;9.232;2023-03-31T05:23:39;14.20;99.90
40660;DHT22;26753;45.544;9.232;2023-03-31T05:26:05;14.20;99.90
40660;DHT22;26753;45.544;9.232;2023-03-31T05:28:32;14.20;99.90
40660;DHT22;26753;45.544;9.232;2023-03-31T05:30:58;14.30;99.90
40660;DHT22;26753;45.544;9.232;2023-03-31T05:33:24;14.30;99.90
40660;DHT22;26753;45.544;9.232;2023-03-31T05:35:50;14.20;99.90
40660;DHT22;26753;45.544;9.232;2023-03-31T05:38:36;14.40;99.90
40660;DHT22;26753;45.544;9.232;2023-03-31T05:41:07;14.30;99.90
40660;DHT22;26753;45.544;9.232;2023-03-31T05:43:34;14.40;99.90
40660;DHT22;26753;45.544;9.232;2023-03-31T05:46:00;14.40;99.90
40660;DHT22;26753;45.544;9.232;2023-03-31T05:48:25;14.50;99.90
40660;DHT22;26753;45.544;9.232;2023-03-31T05:50:55;14.50;99.90
40660;DHT22;26753;45.544;9.232;2023-03-31T05:53:20;14.40;99.90
40660;DHT22;26753;45.544;9.232;2023-03-31T05:55:46;14.40;99.90
40660;DHT22;26753;45.544;9.232;2023-03-31T05:58:11;14.60;99.90
40660;DHT22;26753;45.544;9.232;2023-03-31T06:00:37;14.60;99.90
40660;DHT22;26753;45.544;9.232;2023-03-31T06:03:05;14.60;99.90
40660;DHT22;26753;45.544;9.232;2023-03-31T06:05:32;14.50;99.90
40660;DHT22;26753;45.544;9.232;2023-03-31T06:07:59;14.50;99.90
40660;DHT22;26753;45.544;9.232;2023-03-31T06:10:24;14.50;99.90
40660;DHT22;26753;45.544;9.232;2023-03-31T06:12:50;14.60;99.90
40660;DHT22;26753;45.544;9.232;2023-03-31T06:15:16;14.60;99.90
40660;DHT22;26753;45.544;9.232;2023-03-31T06:17:41;14.60;99.90
40660;DHT22;26753;45.544;9.232;2023-03-31T06:20:07;14.60;99.90
40660;DHT22;26753;45.544;9.232;2023-03-31T06:22:33;14.70;99.90
40660;DHT22;26753;45.544;9.232;2023-03-31T06:24:59;14.70;99.90
40660;DHT22;26753;45.544;9.232;2023-03-31T06:27:24;14.70;99.90
40660;DHT22;26753;45.544;9.232;2023-03-31T06:29:50;14.70;99.90
40660;DHT22;26753;45.544;9.232;2023-03-31T06:32:15;14.70;99.90
40660;DHT22;26753;45.544;9.232;2023-03-31T06:34:44;14.70;99.90
40660;DHT22;26753;45.544;9.232;2023-03-31T06:37:09;14.80;99.90
40660;DHT22;26753;45.544;9.232;2023-03-31T06:39:35;14.80;99.90
40660;DHT22;26753;45.544;9.232;2023-03-31T06:42:01;14.80;99.90
40660;DHT22;26753;45.544;9.232;2023-03-31T06:44:26;14.90;99.90
40660;DHT22;26753;45.544;9.232;2023-03-31T06:46:55;14.90;99.90
40660;DHT22;26753;45.544;9.232;2023-03-31T06:49:21;15.00;99.90
40660;DHT22;26753;45.544;9.232;2023-03-31T06:51:50;14.90;99.90
40660;DHT22;26753;45.544;9.232;2023-03-31T06:54:16;14.90;99.90
40660;DHT22;26753;45.544;9.232;2023-03-31T06:56:45;15.10;99.90
40660;DHT22;26753;45.544;9.232;2023-03-31T06:59:17;15.10;99.90
40660;DHT22;26753;45.544;9.232;2023-03-31T07:01:42;15.10;99.90
40660;DHT22;26753;45.544;9.232;2023-03-31T07:04:10;15.10;99.90
40660;DHT22;26753;45.544;9.232;2023-03-31T07:06:36;15.10;99.90
40660;DHT22;26753;45.544;9.232;2023-03-31T07:09:01;15.10;99.90
40660;DHT22;26753;45.544;9.232;2023-03-31T07:17:45;15.30;99.90
40660;DHT22;26753;45.544;9.232;2023-03-31T07:20:24;15.60;99.90
40660;DHT22;26753;45.544;9.232;2023-03-31T07:23:01;15.10;99.90
40660;DHT22;26753;45.544;9.232;2023-03-31T07:25:36;16.00;99.90
40660;DHT22;26753;45.544;9.232;2023-03-31T07:28:04;16.10;99.90
40660;DHT22;26753;45.544;9.232;2023-03-31T07:30:42;16.20;99.90
40660;DHT22;26753;45.544;9.232;2023-03-31T07:33:11;16.10;99.90
40660;DHT22;26753;45.544;9.232;2023-03-31T07:35:42;16.10;99.90
40660;DHT22;26753;45.544;9.232;2023-03-31T07:38:08;16.20;99.90
40660;DHT22;26753;45.544;9.232;2023-03-31T07:40:59;16.30;99.90
40660;DHT22;26753;45.544;9.232;2023-03-31T07:43:25;16.60;99.90
40660;DHT22;26753;45.544;9.232;2023-03-31T07:45:55;16.60;99.90
40660;DHT22;26753;45.544;9.232;2023-03-31T07:51:40;16.90;99.90
40660;DHT22;26753;45.544;9.232;2023-03-31T07:54:15;16.90;99.90
40660;DHT22;26753;45.544;9.232;2023-03-31T07:56:40;17.00;99.90
40660;DHT22;26753;45.544;9.232;2023-03-31T07:59:06;17.10;99.90
40660;DHT22;26753;45.544;9.232;2023-03-31T08:01:35;17.00;99.90
40660;DHT22;26753;45.544;9.232;2023-03-31T08:04:01;17.00;99.90
40660;DHT22;26753;45.544;9.232;2023-03-31T08:06:30;17.00;99.90
40660;DHT22;26753;45.544;9.232;2023-03-31T08:08:56;17.00;99.90
40660;DHT22;26753;45.544;9.232;2023-03-31T08:11:22;17.10;99.90
40660;DHT22;26753;45.544;9.232;2023-03-31T08:13:48;17.10;99.90
40660;DHT22;26753;45.544;9.232;2023-03-31T08:16:14;17.10;99.90
40660;DHT22;26753;45.544;9.232;2023-03-31T08:18:43;17.10;99.90
40660;DHT22;26753;45.544;9.232;2023-03-31T08:21:12;17.40;99.90
40660;DHT22;26753;45.544;9.232;2023-03-31T08:23:37;17.50;99.90
40660;DHT22;26753;45.544;9.232;2023-03-31T08:26:13;17.60;99.90
40660;DHT22;26753;45.544;9.232;2023-03-31T08:28:41;17.80;99.90
40660;DHT22;26753;45.544;9.232;2023-03-31T08:31:17;18.00;99.90
40660;DHT22;26753;45.544;9.232;2023-03-31T08:33:44;18.00;99.90
40660;DHT22;26753;45.544;9.232;2023-03-31T08:36:12;18.10;99.90
40660;DHT22;26753;45.544;9.232;2023-03-31T08:38:39;17.90;99.90
40660;DHT22;26753;45.544;9.232;2023-03-31T08:41:36;17.60;99.90
40660;DHT22;26753;45.544;9.232;2023-03-31T08:43:58;17.50;99.90
40660;DHT22;26753;45.544;9.232;2023-03-31T08:46:26;17.40;99.90
40660;DHT22;26753;45.544;9.232;2023-03-31T08:48:54;17.40;99.90
40660;DHT22;26753;45.544;9.232;2023-03-31T08:53:50;17.60;99.90
40660;DHT22;26753;45.544;9.232;2023-03-31T08:56:18;17.80;99.90
40660;DHT22;26753;45.544;9.232;2023-03-31T08:58:46;17.90;99.90
40660;DHT22;26753;45.544;9.232;2023-03-31T09:01:17;18.10;99.90
40660;DHT22;26753;45.544;9.232;2023-03-31T09:06:15;18.50;99.90
40660;DHT22;26753;45.544;9.232;2023-03-31T09:08:46;18.50;99.90
40660;DHT22;26753;45.544;9.232;2023-03-31T09:13:44;19.00;99.90
40660;DHT22;26753;45.544;9.232;2023-03-31T09:18:37;19.20;99.90
40660;DHT22;26753;45.544;9.232;2023-03-31T09:23:53;19.10;99.90
40660;DHT22;26753;45.544;9.232;2023-03-31T09:27:04;19.00;99.90
40660;DHT22;26753;45.544;9.232;2023-03-31T09:29:27;18.70;99.90
40660;DHT22;26753;45.544;9.232;2023-03-31T09:31:55;18.40;99.90
40660;DHT22;26753;45.544;9.232;2023-03-31T09:34:29;18.20;99.90
40660;DHT22;26753;45.544;9.232;2023-03-31T09:36:56;18.10;99.90
40660;DHT22;26753;45.544;9.232;2023-03-31T09:39:22;18.10;99.90
40660;DHT22;26753;45.544;9.232;2023-03-31T09:41:48;18.00;99.90
40660;DHT22;26753;45.544;9.232;2023-03-31T09:46:52;17.90;99.90
40660;DHT22;26753;45.544;9.232;2023-03-31T09:52:36;17.70;99.90
40660;DHT22;26753;45.544;9.232;2023-03-31T09:57:40;17.80;99.90
40660;DHT22;26753;45.544;9.232;2023-03-31T10:02:39;17.90;99.90
40660;DHT22;26753;45.544;9.232;2023-03-31T10:07:47;17.80;99.90
40660;DHT22;26753;45.544;9.232;2023-03-31T10:10:25;17.80;99.90
40660;DHT22;26753;45.544;9.232;2023-03-31T10:12:54;17.50;99.90
40660;DHT22;26753;45.544;9.232;2023-03-31T10:15:26;17.70;99.90
40660;DHT22;26753;45.544;9.232;2023-03-31T10:17:54;17.70;99.90
40660;DHT22;26753;45.544;9.232;2023-03-31T10:20:33;17.90;99.90
40660;DHT22;26753;45.544;9.232;2023-03-31T10:23:15;17.80;99.90
40660;DHT22;26753;45.544;9.232;2023-03-31T10:25:44;18.00;99.90
40660;DHT22;26753;45.544;9.232;2023-03-31T10:28:11;18.10;99.90
40660;DHT22;26753;45.544;9.232;2023-03-31T10:30:42;18.20;99.90
40660;DHT22;26753;45.544;9.232;2023-03-31T10:33:14;18.20;99.90
40660;DHT22;26753;45.544;9.232;2023-03-31T10:35:46;18.30;99.90
40660;DHT22;26753;45.544;9.232;2023-03-31T10:38:17;18.50;99.90
40660;DHT22;26753;45.544;9.232;2023-03-31T10:40:53;18.50;99.90
40660;DHT22;26753;45.544;9.232;2023-03-31T10:43:20;18.60;99.90
40660;DHT22;26753;45.544;9.232;2023-03-31T10:45:50;18.80;99.90
40660;DHT22;26753;45.544;9.232;2023-03-31T10:48:24;19.00;99.90
40660;DHT22;26753;45.544;9.232;2023-03-31T10:50:50;18.90;99.90
40660;DHT22;26753;45.544;9.232;2023-03-31T10:53:16;18.90;99.90
40660;DHT22;26753;45.544;9.232;2023-03-31T10:58:30;18.50;99.90
40660;DHT22;26753;45.544;9.232;2023-03-31T11:01:19;18.60;99.90
40660;DHT22;26753;45.544;9.232;2023-03-31T11:03:54;18.70;99.90
40660;DHT22;26753;45.544;9.232;2023-03-31T11:15:09;17.90;99.90
40660;DHT22;26753;45.544;9.232;2023-03-31T11:17:55;17.90;99.90
40660;DHT22;26753;45.544;9.232;2023-03-31T11:25:55;17.90;99.90
40660;DHT22;26753;45.544;9.232;2023-03-31T11:29:12;17.80;99.90
40660;DHT22;26753;45.544;9.232;2023-03-31T11:31:16;17.70;99.90
40660;DHT22;26753;45.544;9.232;2023-03-31T11:36:17;17.50;99.90
40660;DHT22;26753;45.544;9.232;2023-03-31T11:41:41;17.70;99.90
40660;DHT22;26753;45.544;9.232;2023-03-31T11:44:10;17.80;99.90
40660;DHT22;26753;45.544;9.232;2023-03-31T11:49:31;18.00;99.90
40660;DHT22;26753;45.544;9.232;2023-03-31T11:52:05;18.40;99.90
40660;DHT22;26753;45.544;9.232;2023-03-31T11:54:35;18.80;99.90
40660;DHT22;26753;45.544;9.232;2023-03-31T11:57:05;19.20;99.90
40660;DHT22;26753;45.544;9.232;2023-03-31T11:59:33;19.30;99.90
40660;DHT22;26753;45.544;9.232;2023-03-31T12:02:08;19.20;99.90
40660;DHT22;26753;45.544;9.232;2023-03-31T12:04:36;19.00;99.90
40660;DHT22;26753;45.544;9.232;2023-03-31T12:07:50;18.70;99.90
40660;DHT22;26753;45.544;9.232;2023-03-31T12:15:19;17.80;99.90
40660;DHT22;26753;45.544;9.232;2023-03-31T12:21:21;17.60;99.90
40660;DHT22;26753;45.544;9.232;2023-03-31T12:23:46;17.50;99.90
40660;DHT22;26753;45.544;9.232;2023-03-31T12:28:57;17.40;99.90
40660;DHT22;26753;45.544;9.232;2023-03-31T12:31:27;17.40;99.90
40660;DHT22;26753;45.544;9.232;2023-03-31T12:33:58;17.30;99.90
40660;DHT22;26753;45.544;9.232;2023-03-31T12:44:11;17.10;99.90
40660;DHT22;26753;45.544;9.232;2023-03-31T12:47:07;17.10;99.90
40660;DHT22;26753;45.544;9.232;2023-03-31T13:09:01;17.00;99.90
40660;DHT22;26753;45.544;9.232;2023-03-31T13:14:03;17.00;99.90
40660;DHT22;26753;45.544;9.232;2023-03-31T13:19:30;17.10;99.90
40660;DHT22;26753;45.544;9.232;2023-03-31T13:21:57;17.10;99.90
40660;DHT22;26753;45.544;9.232;2023-03-31T13:24:24;17.10;99.90
40660;DHT22;26753;45.544;9.232;2023-03-31T13:26:50;17.10;99.90
40660;DHT22;26753;45.544;9.232;2023-03-31T13:29:37;17.20;99.90
40660;DHT22;26753;45.544;9.232;2023-03-31T13:32:04;17.30;99.90
40660;DHT22;26753;45.544;9.232;2023-03-31T13:34:33;17.50;99.90
40660;DHT22;26753;45.544;9.232;2023-03-31T13:45:12;17.70;99.90
40660;DHT22;26753;45.544;9.232;2023-03-31T13:48:02;17.70;99.90
40660;DHT22;26753;45.544;9.232;2023-03-31T14:11:30;18.00;99.90
40660;DHT22;26753;45.544;9.232;2023-03-31T14:16:28;18.10;99.90
40660;DHT22;26753;45.544;9.232;2023-03-31T14:18:59;17.90;99.90
40660;DHT22;26753;45.544;9.232;2023-03-31T14:21:39;17.90;99.90
40660;DHT22;26753;45.544;9.232;2023-03-31T14:24:49;17.80;99.90
40660;DHT22;26753;45.544;9.232;2023-03-31T14:26:59;17.70;99.90
40660;DHT22;26753;45.544;9.232;2023-03-31T14:29:49;17.50;99.90
40660;DHT22;26753;45.544;9.232;2023-03-31T14:32:21;17.50;99.90
40660;DHT22;26753;45.544;9.232;2023-03-31T14:37:32;17.50;99.90
40660;DHT22;26753;45.544;9.232;2023-03-31T14:39:59;17.70;99.90
40660;DHT22;26753;45.544;9.232;2023-03-31T14:42:28;17.90;99.90
40660;DHT22;26753;45.544;9.232;2023-03-31T14:44:56;18.30;99.90
40660;DHT22;26753;45.544;9.232;2023-03-31T14:47:22;18.40;99.90
40660;DHT22;26753;45.544;9.232;2023-03-31T14:50:32;18.50;99.90
40660;DHT22;26753;45.544;9.232;2023-03-31T14:52:39;18.30;99.90
40660;DHT22;26753;45.544;9.232;2023-03-31T14:55:14;18.20;99.90
40660;DHT22;26753;45.544;9.232;2023-03-31T14:57:43;18.00;99.90
40660;DHT22;26753;45.544;9.232;2023-03-31T15:00:14;18.00;99.90
40660;DHT22;26753;45.544;9.232;2023-03-31T15:02:40;17.80;99.90
40660;DHT22;26753;45.544;9.232;2023-03-31T15:05:07;17.70;99.90
40660;DHT22;26753;45.544;9.232;2023-03-31T15:07:37;17.80;99.90
40660;DHT22;26753;45.544;9.232;2023-03-31T15:10:05;17.70;99.90
40660;DHT22;26753;45.544;9.232;2023-03-31T15:12:30;17.50;99.90
40660;DHT22;26753;45.544;9.232;2023-03-31T15:15:02;17.50;99.90
40660;DHT22;26753;45.544;9.232;2023-03-31T15:17:29;17.60;99.90
40660;DHT22;26753;45.544;9.232;2023-03-31T15:20:00;17.80;99.90
40660;DHT22;26753;45.544;9.232;2023-03-31T15:22:28;18.20;99.90
40660;DHT22;26753;45.544;9.232;2023-03-31T15:24:54;18.50;99.90
40660;DHT22;26753;45.544;9.232;2023-03-31T15:27:36;18.50;99.90
40660;DHT22;26753;45.544;9.232;2023-03-31T15:30:06;18.30;99.90
40660;DHT22;26753;45.544;9.232;2023-03-31T15:32:35;18.00;99.90
40660;DHT22;26753;45.544;9.232;2023-03-31T15:35:02;17.90;99.90
40660;DHT22;26753;45.544;9.232;2023-03-31T15:37:30;17.60;99.90
40660;DHT22;26753;45.544;9.232;2023-03-31T15:40:02;17.40;99.90
40660;DHT22;26753;45.544;9.232;2023-03-31T15:42:32;17.40;99.90
40660;DHT22;26753;45.544;9.232;2023-03-31T15:47:50;17.40;99.90
40660;DHT22;26753;45.544;9.232;2023-03-31T15:50:16;17.10;99.90
40660;DHT22;26753;45.544;9.232;2023-03-31T15:52:46;16.80;99.90
40660;DHT22;26753;45.544;9.232;2023-03-31T15:55:25;16.70;99.90
40660;DHT22;26753;45.544;9.232;2023-03-31T15:57:53;16.60;99.90
40660;DHT22;26753;45.544;9.232;2023-03-31T16:03:04;16.50;99.90
40660;DHT22;26753;45.544;9.232;2023-03-31T16:05:38;16.30;99.90
40660;DHT22;26753;45.544;9.232;2023-03-31T16:11:01;16.30;99.90
40660;DHT22;26753;45.544;9.232;2023-03-31T16:13:30;16.40;99.90
40660;DHT22;26753;45.544;9.232;2023-03-31T16:15:56;16.60;99.90
40660;DHT22;26753;45.544;9.232;2023-03-31T16:18:31;16.60;99.90
40660;DHT22;26753;45.544;9.232;2023-03-31T16:20:59;16.80;99.90
40660;DHT22;26753;45.544;9.232;2023-03-31T16:23:27;16.90;99.90
40660;DHT22;26753;45.544;9.232;2023-03-31T16:25:53;17.10;99.90
40660;DHT22;26753;45.544;9.232;2023-03-31T16:28:19;17.40;99.90
40660;DHT22;26753;45.544;9.232;2023-03-31T16:30:46;17.70;99.90
40660;DHT22;26753;45.544;9.232;2023-03-31T16:33:15;17.80;99.90
40660;DHT22;26753;45.544;9.232;2023-03-31T16:35:43;17.80;99.90
40660;DHT22;26753;45.544;9.232;2023-03-31T16:38:09;17.70;99.90
40660;DHT22;26753;45.544;9.232;2023-03-31T16:40:36;17.60;99.90
40660;DHT22;26753;45.544;9.232;2023-03-31T16:45:50;17.40;99.90
40660;DHT22;26753;45.544;9.232;2023-03-31T16:48:17;17.40;99.90
40660;DHT22;26753;45.544;9.232;2023-03-31T16:50:47;17.30;99.90
40660;DHT22;26753;45.544;9.232;2023-03-31T16:53:13;17.30;99.90
40660;DHT22;26753;45.544;9.232;2023-03-31T16:55:39;17.20;99.90
40660;DHT22;26753;45.544;9.232;2023-03-31T16:58:05;17.00;99.90
40660;DHT22;26753;45.544;9.232;2023-03-31T17:00:31;16.80;99.90
40660;DHT22;26753;45.544;9.232;2023-03-31T17:02:59;16.60;99.90
40660;DHT22;26753;45.544;9.232;2023-03-31T17:05:26;16.50;99.90
40660;DHT22;26753;45.544;9.232;2023-03-31T17:07:51;16.40;99.90
40660;DHT22;26753;45.544;9.232;2023-03-31T17:10:17;16.30;99.90
40660;DHT22;26753;45.544;9.232;2023-03-31T17:12:43;16.30;99.90
40660;DHT22;26753;45.544;9.232;2023-03-31T17:15:09;16.10;99.90
40660;DHT22;26753;45.544;9.232;2023-03-31T17:17:34;16.20;99.90
40660;DHT22;26753;45.544;9.232;2023-03-31T17:20:01;16.20;99.90
40660;DHT22;26753;45.544;9.232;2023-03-31T17:22:26;16.30;99.90
40660;DHT22;26753;45.544;9.232;2023-03-31T17:24:52;16.20;99.90
40660;DHT22;26753;45.544;9.232;2023-03-31T17:27:23;16.10;99.90
40660;DHT22;26753;45.544;9.232;2023-03-31T17:29:49;16.00;99.90
40660;DHT22;26753;45.544;9.232;2023-03-31T17:32:14;15.90;99.90
40660;DHT22;26753;45.544;9.232;2023-03-31T17:34:40;15.90;99.90
40660;DHT22;26753;45.544;9.232;2023-03-31T17:37:06;15.80;99.90
40660;DHT22;26753;45.544;9.232;2023-03-31T17:39:32;15.80;99.90
40660;DHT22;26753;45.544;9.232;2023-03-31T17:41:57;15.70;99.90
40660;DHT22;26753;45.544;9.232;2023-03-31T17:44:23;15.80;99.90
40660;DHT22;26753;45.544;9.232;2023-03-31T17:46:49;15.70;99.90
40660;DHT22;26753;45.544;9.232;2023-03-31T17:49:16;15.80;99.90
40660;DHT22;26753;45.544;9.232;2023-03-31T17:51:42;15.80;99.90
40660;DHT22;26753;45.544;9.232;2023-03-31T17:54:11;15.80;99.90
40660;DHT22;26753;45.544;9.232;2023-03-31T17:56:37;15.90;99.90
40660;DHT22;26753;45.544;9.232;2023-03-31T17:59:03;15.70;99.90
40660;DHT22;26753;45.544;9.232;2023-03-31T18:01:29;15.60;99.90
40660;DHT22;26753;45.544;9.232;2023-03-31T18:03:55;15.60;99.90
40660;DHT22;26753;45.544;9.232;2023-03-31T18:06:21;15.60;99.90
40660;DHT22;26753;45.544;9.232;2023-03-31T18:08:47;15.60;99.90
40660;DHT22;26753;45.544;9.232;2023-03-31T18:11:13;15.70;99.90
40660;DHT22;26753;45.544;9.232;2023-03-31T18:13:38;15.60;99.90
40660;DHT22;26753;45.544;9.232;2023-03-31T18:16:04;15.70;99.90
40660;DHT22;26753;45.544;9.232;2023-03-31T18:18:30;15.60;99.90
40660;DHT22;26753;45.544;9.232;2023-03-31T18:20:56;15.70;99.90
40660;DHT22;26753;45.544;9.232;2023-03-31T18:23:22;15.60;99.90
40660;DHT22;26753;45.544;9.232;2023-03-31T18:25:47;15.70;99.90
40660;DHT22;26753;45.544;9.232;2023-03-31T18:28:13;15.60;99.90
40660;DHT22;26753;45.544;9.232;2023-03-31T18:30:39;15.70;99.90
40660;DHT22;26753;45.544;9.232;2023-03-31T18:33:05;15.50;99.90
40660;DHT22;26753;45.544;9.232;2023-03-31T18:35:31;15.50;99.90
40660;DHT22;26753;45.544;9.232;2023-03-31T18:37:57;15.40;99.90
40660;DHT22;26753;45.544;9.232;2023-03-31T18:40:23;15.50;99.90
40660;DHT22;26753;45.544;9.232;2023-03-31T18:42:48;15.40;99.90
40660;DHT22;26753;45.544;9.232;2023-03-31T18:45:14;15.30;99.90
40660;DHT22;26753;45.544;9.232;2023-03-31T18:47:40;15.30;99.90
40660;DHT22;26753;45.544;9.232;2023-03-31T18:50:06;15.20;99.90
40660;DHT22;26753;45.544;9.232;2023-03-31T18:52:31;15.00;99.90
40660;DHT22;26753;45.544;9.232;2023-03-31T18:54:59;14.90;99.90
40660;DHT22;26753;45.544;9.232;2023-03-31T18:57:25;14.80;99.90
40660;DHT22;26753;45.544;9.232;2023-03-31T18:59:51;14.80;99.90
40660;DHT22;26753;45.544;9.232;2023-03-31T19:02:16;14.80;99.90
40660;DHT22;26753;45.544;9.232;2023-03-31T19:04:43;14.70;99.90